sensor_id;sensor_type;location;lat;lon;timestamp;pressure;altitude;pressure_sealevel;temperature;humidity
21433;BME280;18592;49.708;10.900;2024-03-07T00:02:17;99254.69;;;13.90;50.75
21433;BME280;18592;49.708;10.900;2024-03-07T00:04:33;99257.34;;;13.85;51.05
21433;BME280;18592;49.708;10.900;2024-03-07T00:07:02;99256.22;;;13.81;51.04
21433;BME280;18592;49.708;10.900;2024-03-07T00:09:15;99255.63;;;13.79;50.65
21433;BME280;18592;49.708;10.900;2024-03-07T00:11:23;99252.81;;;13.74;50.50
21433;BME280;18592;49.708;10.900;2024-03-07T00:13:36;99248.94;;;13.70;50.78
21433;BME280;18592;49.708;10.900;2024-03-07T00:26:30;99252.69;;;13.42;49.86
21433;BME280;18592;49.708;10.900;2024-03-07T00:28:30;99261.16;;;13.41;49.73
21433;BME280;18592;49.708;10.900;2024-03-07T00:30:32;99252.94;;;13.41;50.10
21433;BME280;18592;49.708;10.900;2024-03-07T00:32:34;99251.53;;;13.38;50.28
21433;BME280;18592;49.708;10.900;2024-03-07T00:34:39;99249.53;;;13.33;50.67
21433;BME280;18592;49.708;10.900;2024-03-07T00:36:40;99244.56;;;13.30;50.76
21433;BME280;18592;49.708;10.900;2024-03-07T00:38:42;99247.81;;;13.27;50.88
21433;BME280;18592;49.708;10.900;2024-03-07T00:40:42;99248.88;;;13.26;51.17
21433;BME280;18592;49.708;10.900;2024-03-07T00:42:42;99249.38;;;13.23;50.72
21433;BME280;18592;49.708;10.900;2024-03-07T00:44:43;99241.69;;;13.20;50.24
21433;BME280;18592;49.708;10.900;2024-03-07T00:46:43;99239.19;;;13.19;50.42
21433;BME280;18592;49.708;10.900;2024-03-07T00:48:44;99237.78;;;13.16;50.43
21433;BME280;18592;49.708;10.900;2024-03-07T00:50:45;99239.94;;;13.14;50.09
21433;BME280;18592;49.708;10.900;2024-03-07T00:52:46;99236.88;;;13.11;49.35
21433;BME280;18592;49.708;10.900;2024-03-07T00:54:46;99235.47;;;13.08;49.34
21433;BME280;18592;49.708;10.900;2024-03-07T01:07:28;99224.66;;;13.57;46.53
21433;BME280;18592;49.708;10.900;2024-03-07T01:09:38;99224.88;;;13.33;47.12
21433;BME280;18592;49.708;10.900;2024-03-07T01:11:39;99231.81;;;13.19;47.86
21433;BME280;18592;49.708;10.900;2024-03-07T01:13:39;99227.84;;;13.10;48.40
21433;BME280;18592;49.708;10.900;2024-03-07T01:15:40;99228.81;;;13.04;48.54
21433;BME280;18592;49.708;10.900;2024-03-07T01:17:40;99217.22;;;12.97;48.66
21433;BME280;18592;49.708;10.900;2024-03-07T01:19:41;99219.88;;;12.92;48.90
21433;BME280;18592;49.708;10.900;2024-03-07T01:32:27;99211.88;;;13.41;47.92
21433;BME280;18592;49.708;10.900;2024-03-07T01:34:28;99221.44;;;13.21;48.68
21433;BME280;18592;49.708;10.900;2024-03-07T01:36:28;99215.72;;;13.06;49.11
21433;BME280;18592;49.708;10.900;2024-03-07T01:38:38;99212.81;;;12.96;49.32
21433;BME280;18592;49.708;10.900;2024-03-07T01:40:42;99213.22;;;12.88;49.43
21433;BME280;18592;49.708;10.900;2024-03-07T01:42:47;99215.31;;;12.81;49.78
21433;BME280;18592;49.708;10.900;2024-03-07T01:45:00;99207.59;;;12.78;50.16
21433;BME280;18592;49.708;10.900;2024-03-07T01:47:15;99209.41;;;12.72;50.36
21433;BME280;18592;49.708;10.900;2024-03-07T01:49:15;99205.25;;;12.70;50.46
21433;BME280;18592;49.708;10.900;2024-03-07T01:51:16;99207.78;;;12.71;50.70
21433;BME280;18592;49.708;10.900;2024-03-07T01:53:16;99207.19;;;12.69;51.13
21433;BME280;18592;49.708;10.900;2024-03-07T01:55:17;99200.31;;;12.67;51.29
21433;BME280;18592;49.708;10.900;2024-03-07T01:57:18;99195.91;;;12.66;51.14
21433;BME280;18592;49.708;10.900;2024-03-07T01:59:19;99198.66;;;12.66;51.26
21433;BME280;18592;49.708;10.900;2024-03-07T02:01:21;99198.66;;;12.66;51.81
21433;BME280;18592;49.708;10.900;2024-03-07T02:03:21;99204.13;;;12.66;51.93
21433;BME280;18592;49.708;10.900;2024-03-07T02:05:22;99197.81;;;12.65;51.99
21433;BME280;18592;49.708;10.900;2024-03-07T02:07:38;99192.59;;;12.64;52.18
21433;BME280;18592;49.708;10.900;2024-03-07T02:09:41;99198.31;;;12.62;52.08
21433;BME280;18592;49.708;10.900;2024-03-07T02:11:41;99188.19;;;12.63;52.18
21433;BME280;18592;49.708;10.900;2024-03-07T02:13:49;99187.38;;;12.62;52.41
21433;BME280;18592;49.708;10.900;2024-03-07T02:15:59;99184.63;;;12.62;52.23
21433;BME280;18592;49.708;10.900;2024-03-07T02:18:00;99185.47;;;12.63;52.33
21433;BME280;18592;49.708;10.900;2024-03-07T02:20:00;99183.56;;;12.63;52.28
21433;BME280;18592;49.708;10.900;2024-03-07T02:22:00;99174.28;;;12.64;51.92
21433;BME280;18592;49.708;10.900;2024-03-07T02:24:01;99173.47;;;12.64;52.38
21433;BME280;18592;49.708;10.900;2024-03-07T02:26:05;99177.81;;;12.65;51.43
21433;BME280;18592;49.708;10.900;2024-03-07T02:28:25;99181.09;;;12.62;51.29
21433;BME280;18592;49.708;10.900;2024-03-07T02:30:27;99172.88;;;12.62;51.64
21433;BME280;18592;49.708;10.900;2024-03-07T02:32:29;99166.56;;;12.61;51.78
21433;BME280;18592;49.708;10.900;2024-03-07T02:34:29;99168.47;;;12.61;51.85
21433;BME280;18592;49.708;10.900;2024-03-07T02:36:30;99173.94;;;12.61;51.90
21433;BME280;18592;49.708;10.900;2024-03-07T02:38:31;99168.22;;;12.62;52.14
21433;BME280;18592;49.708;10.900;2024-03-07T02:40:31;99168.00;;;12.64;52.42
21433;BME280;18592;49.708;10.900;2024-03-07T02:42:32;99168.00;;;12.64;52.31
21433;BME280;18592;49.708;10.900;2024-03-07T02:44:32;99162.50;;;12.64;52.56
21433;BME280;18592;49.708;10.900;2024-03-07T02:46:33;99160.63;;;12.64;52.82
21433;BME280;18592;49.708;10.900;2024-03-07T02:48:33;99163.66;;;12.68;52.82
21433;BME280;18592;49.708;10.900;2024-03-07T02:50:34;99161.50;;;12.70;52.88
21433;BME280;18592;49.708;10.900;2024-03-07T02:52:34;99157.69;;;12.71;53.22
21433;BME280;18592;49.708;10.900;2024-03-07T02:54:35;99153.28;;;12.70;53.09
21433;BME280;18592;49.708;10.900;2024-03-07T02:56:35;99155.22;;;12.69;53.58
21433;BME280;18592;49.708;10.900;2024-03-07T02:58:35;99157.69;;;12.71;53.40
21433;BME280;18592;49.708;10.900;2024-03-07T03:00:36;99164.84;;;12.72;53.44
21433;BME280;18592;49.708;10.900;2024-03-07T03:02:37;99162.69;;;12.74;53.48
21433;BME280;18592;49.708;10.900;2024-03-07T03:04:37;99159.69;;;12.75;53.61
21433;BME280;18592;49.708;10.900;2024-03-07T03:06:37;99166.56;;;12.78;53.49
21433;BME280;18592;49.708;10.900;2024-03-07T03:08:38;99164.66;;;12.79;53.53
21433;BME280;18592;49.708;10.900;2024-03-07T03:10:38;99157.84;;;12.81;53.04
21433;BME280;18592;49.708;10.900;2024-03-07T03:12:38;99163.06;;;12.83;53.37
21433;BME280;18592;49.708;10.900;2024-03-07T03:14:39;99160.09;;;12.84;53.50
21433;BME280;18592;49.708;10.900;2024-03-07T03:16:45;99160.09;;;12.84;53.63
21433;BME280;18592;49.708;10.900;2024-03-07T03:18:46;99164.47;;;12.85;53.53
21433;BME280;18592;49.708;10.900;2024-03-07T03:21:11;99155.19;;;12.86;53.74
21433;BME280;18592;49.708;10.900;2024-03-07T03:23:18;99154.34;;;12.86;53.78
21433;BME280;18592;49.708;10.900;2024-03-07T03:25:34;99163.41;;;12.86;53.99
21433;BME280;18592;49.708;10.900;2024-03-07T03:27:37;99168.03;;;12.86;53.84
21433;BME280;18592;49.708;10.900;2024-03-07T03:29:42;99155.19;;;12.86;54.00
21433;BME280;18592;49.708;10.900;2024-03-07T03:31:56;99161.50;;;12.87;54.01
21433;BME280;18592;49.708;10.900;2024-03-07T03:33:58;99150.28;;;12.88;53.91
21433;BME280;18592;49.708;10.900;2024-03-07T03:36:00;99155.75;;;12.88;53.83
21433;BME280;18592;49.708;10.900;2024-03-07T03:38:15;99155.53;;;12.90;54.04
21433;BME280;18592;49.708;10.900;2024-03-07T03:40:21;99152.19;;;12.88;53.76
21433;BME280;18592;49.708;10.900;2024-03-07T03:42:42;99145.91;;;12.87;53.38
21433;BME280;18592;49.708;10.900;2024-03-07T03:44:42;99144.81;;;12.88;53.48
21433;BME280;18592;49.708;10.900;2024-03-07T03:46:57;99150.28;;;12.88;53.26
21433;BME280;18592;49.708;10.900;2024-03-07T03:49:12;99146.50;;;12.89;52.83
21433;BME280;18592;49.708;10.900;2024-03-07T03:51:19;99145.09;;;12.87;52.91
21433;BME280;18592;49.708;10.900;2024-03-07T03:53:28;99150.56;;;12.87;53.09
21433;BME280;18592;49.708;10.900;2024-03-07T03:55:30;99143.19;;;12.87;53.07
21433;BME280;18592;49.708;10.900;2024-03-07T03:57:42;99138.78;;;12.86;53.04
21433;BME280;18592;49.708;10.900;2024-03-07T03:59:58;99140.94;;;12.84;52.98
21433;BME280;18592;49.708;10.900;2024-03-07T04:02:20;99137.63;;;12.82;52.88
21433;BME280;18592;49.708;10.900;2024-03-07T04:04:23;99145.84;;;12.82;52.78
21433;BME280;18592;49.708;10.900;2024-03-07T04:06:33;99135.41;;;12.79;52.91
21433;BME280;18592;49.708;10.900;2024-03-07T04:08:36;99137.78;;;12.75;52.87
21433;BME280;18592;49.708;10.900;2024-03-07T04:10:52;99139.97;;;12.73;52.74
21433;BME280;18592;49.708;10.900;2024-03-07T04:13:07;99148.91;;;12.69;52.78
21433;BME280;18592;49.708;10.900;2024-03-07T04:15:14;99145.00;;;12.65;52.55
21433;BME280;18592;49.708;10.900;2024-03-07T04:17:31;99152.63;;;12.63;52.32
21433;BME280;18592;49.708;10.900;2024-03-07T04:19:42;99156.97;;;12.59;52.21
21433;BME280;18592;49.708;10.900;2024-03-07T04:21:58;99149.25;;;12.56;52.16
21433;BME280;18592;49.708;10.900;2024-03-07T04:24:27;99156.31;;;12.52;52.33
21433;BME280;18592;49.708;10.900;2024-03-07T04:26:40;99152.97;;;12.50;52.07
21433;BME280;18592;49.708;10.900;2024-03-07T04:28:58;99153.72;;;12.45;52.10
21433;BME280;18592;49.708;10.900;2024-03-07T04:31:02;99152.88;;;12.45;52.14
21433;BME280;18592;49.708;10.900;2024-03-07T04:33:06;99154.22;;;12.42;52.24
21433;BME280;18592;49.708;10.900;2024-03-07T04:35:19;99155.53;;;12.40;52.18
21433;BME280;18592;49.708;10.900;2024-03-07T04:37:39;99155.72;;;12.33;52.08
21433;BME280;18592;49.708;10.900;2024-03-07T04:40:10;99158.09;;;12.30;51.74
21433;BME280;18592;49.708;10.900;2024-03-07T04:42:34;99155.88;;;12.27;51.70
21433;BME280;18592;49.708;10.900;2024-03-07T04:44:59;99155.81;;;12.22;51.44
21433;BME280;18592;49.708;10.900;2024-03-07T04:47:06;99143.19;;;12.21;51.46
21433;BME280;18592;49.708;10.900;2024-03-07T04:49:17;99151.66;;;12.19;51.75
21433;BME280;18592;49.708;10.900;2024-03-07T04:51:18;99153.78;;;12.17;51.85
21433;BME280;18592;49.708;10.900;2024-03-07T04:53:42;99154.78;;;12.11;51.70
21433;BME280;18592;49.708;10.900;2024-03-07T04:55:54;99158.25;;;12.06;51.83
21433;BME280;18592;49.708;10.900;2024-03-07T04:58:18;99159.81;;;12.02;51.92
21433;BME280;18592;49.708;10.900;2024-03-07T05:00:28;99161.38;;;11.98;51.75
21433;BME280;18592;49.708;10.900;2024-03-07T05:02:46;99161.03;;;11.95;51.91
21433;BME280;18592;49.708;10.900;2024-03-07T05:05:03;99164.25;;;11.92;52.15
21433;BME280;18592;49.708;10.900;2024-03-07T05:07:21;99154.66;;;11.89;51.69
21433;BME280;18592;49.708;10.900;2024-03-07T05:09:37;99163.34;;;11.86;52.13
21433;BME280;18592;49.708;10.900;2024-03-07T05:11:40;99163.34;;;11.86;51.86
21433;BME280;18592;49.708;10.900;2024-03-07T05:13:42;99166.56;;;11.83;51.79
21433;BME280;18592;49.708;10.900;2024-03-07T05:15:50;99163.25;;;11.81;52.21
21433;BME280;18592;49.708;10.900;2024-03-07T05:18:06;99161.59;;;11.80;51.53
21433;BME280;18592;49.708;10.900;2024-03-07T05:20:21;99156.59;;;11.77;51.20
21433;BME280;18592;49.708;10.900;2024-03-07T05:22:43;99159.59;;;11.76;51.05
21433;BME280;18592;49.708;10.900;2024-03-07T05:25:08;99169.69;;;11.75;51.51
21433;BME280;18592;49.708;10.900;2024-03-07T05:27:15;99168.28;;;11.73;51.29
21433;BME280;18592;49.708;10.900;2024-03-07T05:29:33;99169.59;;;11.70;51.69
21433;BME280;18592;49.708;10.900;2024-03-07T05:31:42;99164.38;;;11.69;51.79
21433;BME280;18592;49.708;10.900;2024-03-07T05:33:53;99162.09;;;11.66;51.91
21433;BME280;18592;49.708;10.900;2024-03-07T05:36:04;99169.44;;;11.65;52.15
21433;BME280;18592;49.708;10.900;2024-03-07T05:38:20;99166.63;;;11.60;52.35
21433;BME280;18592;49.708;10.900;2024-03-07T05:40:29;99151.06;;;11.61;52.37
21433;BME280;18592;49.708;10.900;2024-03-07T05:42:55;99154.03;;;11.59;52.28
21433;BME280;18592;49.708;10.900;2024-03-07T05:45:16;99159.50;;;11.59;52.11
21433;BME280;18592;49.708;10.900;2024-03-07T05:47:38;99164.94;;;11.59;52.09
21433;BME280;18592;49.708;10.900;2024-03-07T05:49:46;99161.63;;;11.57;52.72
21433;BME280;18592;49.708;10.900;2024-03-07T06:02:40;99158.81;;;11.52;53.65
21433;BME280;18592;49.708;10.900;2024-03-07T06:04:55;99159.16;;;11.56;53.98
21433;BME280;18592;49.708;10.900;2024-03-07T06:06:55;99161.63;;;11.57;53.96
21433;BME280;18592;49.708;10.900;2024-03-07T06:09:07;99164.13;;;11.59;53.86
21433;BME280;18592;49.708;10.900;2024-03-07T06:22:08;99170.88;;;12.41;50.21
21433;BME280;18592;49.708;10.900;2024-03-07T06:24:09;99172.78;;;12.24;50.75
21433;BME280;18592;49.708;10.900;2024-03-07T06:26:14;99169.03;;;12.13;50.79
21433;BME280;18592;49.708;10.900;2024-03-07T06:28:17;99167.53;;;12.05;51.28
21433;BME280;18592;49.708;10.900;2024-03-07T06:30:18;99164.69;;;12.00;51.41
21433;BME280;18592;49.708;10.900;2024-03-07T06:32:21;99167.91;;;11.97;51.80
21433;BME280;18592;49.708;10.900;2024-03-07T06:34:22;99173.84;;;11.94;51.39
21433;BME280;18592;49.708;10.900;2024-03-07T06:36:23;99162.94;;;11.94;51.15
21433;BME280;18592;49.708;10.900;2024-03-07T06:38:25;99167.59;;;11.94;50.74
21433;BME280;18592;49.708;10.900;2024-03-07T06:40:26;99164.03;;;11.93;51.00
21433;BME280;18592;49.708;10.900;2024-03-07T06:42:27;99167.25;;;11.90;50.74
21433;BME280;18592;49.708;10.900;2024-03-07T06:44:37;99171.03;;;11.89;50.73
21433;BME280;18592;49.708;10.900;2024-03-07T06:46:38;99166.41;;;11.90;50.68
21433;BME280;18592;49.708;10.900;2024-03-07T06:48:38;99170.22;;;11.89;50.57
21433;BME280;18592;49.708;10.900;2024-03-07T06:50:41;99178.16;;;11.90;50.46
21433;BME280;18592;49.708;10.900;2024-03-07T06:52:47;99172.69;;;11.90;50.32
21433;BME280;18592;49.708;10.900;2024-03-07T06:54:48;99169.13;;;11.90;50.47
21433;BME280;18592;49.708;10.900;2024-03-07T06:57:03;99165.56;;;11.89;50.17
21433;BME280;18592;49.708;10.900;2024-03-07T06:59:04;99176.50;;;11.89;50.32
21433;BME280;18592;49.708;10.900;2024-03-07T07:01:04;99172.69;;;11.90;50.28
21433;BME280;18592;49.708;10.900;2024-03-07T07:03:09;99175.44;;;11.90;50.66
21433;BME280;18592;49.708;10.900;2024-03-07T07:05:13;99175.19;;;11.92;50.63
21433;BME280;18592;49.708;10.900;2024-03-07T07:07:24;99180.41;;;11.93;50.63
21433;BME280;18592;49.708;10.900;2024-03-07T07:09:24;99181.84;;;11.96;50.48
21433;BME280;18592;49.708;10.900;2024-03-07T07:11:27;99184.31;;;11.97;50.77
21433;BME280;18592;49.708;10.900;2024-03-07T07:13:27;99181.34;;;11.99;50.79
21433;BME280;18592;49.708;10.900;2024-03-07T07:15:28;99181.94;;;12.01;50.91
21433;BME280;18592;49.708;10.900;2024-03-07T07:17:28;99179.78;;;12.03;51.05
21433;BME280;18592;49.708;10.900;2024-03-07T07:19:30;99184.50;;;12.07;51.12
21433;BME280;18592;49.708;10.900;2024-03-07T07:21:30;99182.13;;;12.11;51.35
21433;BME280;18592;49.708;10.900;2024-03-07T07:23:31;99175.66;;;12.17;51.27
21433;BME280;18592;49.708;10.900;2024-03-07T07:25:31;99171.69;;;12.25;51.06
21433;BME280;18592;49.708;10.900;2024-03-07T07:27:32;99170.44;;;12.32;50.79
21433;BME280;18592;49.708;10.900;2024-03-07T07:29:33;99168.63;;;12.38;50.58
21433;BME280;18592;49.708;10.900;2024-03-07T07:31:33;99163.81;;;12.45;50.09
21433;BME280;18592;49.708;10.900;2024-03-07T07:33:48;99165.91;;;12.54;50.11
21433;BME280;18592;49.708;10.900;2024-03-07T07:35:49;99161.69;;;12.63;50.33
21433;BME280;18592;49.708;10.900;2024-03-07T07:37:51;99165.16;;;12.75;50.01
21433;BME280;18592;49.708;10.900;2024-03-07T07:39:53;99151.88;;;12.84;49.80
21433;BME280;18592;49.708;10.900;2024-03-07T07:41:55;99162.16;;;12.94;50.04
21433;BME280;18592;49.708;10.900;2024-03-07T07:43:55;99164.47;;;13.02;49.71
21433;BME280;18592;49.708;10.900;2024-03-07T07:45:58;99156.09;;;13.08;49.21
21433;BME280;18592;49.708;10.900;2024-03-07T07:47:59;99151.50;;;13.14;49.79
21433;BME280;18592;49.708;10.900;2024-03-07T07:49:59;99155.16;;;13.19;49.89
21433;BME280;18592;49.708;10.900;2024-03-07T07:52:01;99152.16;;;13.21;49.54
21433;BME280;18592;49.708;10.900;2024-03-07T07:54:01;99157.97;;;13.24;49.38
21433;BME280;18592;49.708;10.900;2024-03-07T07:56:02;99150.31;;;13.26;49.90
21433;BME280;18592;49.708;10.900;2024-03-07T07:58:18;99147.06;;;13.29;50.09
21433;BME280;18592;49.708;10.900;2024-03-07T08:00:19;99153.13;;;13.31;49.78
21433;BME280;18592;49.708;10.900;2024-03-07T08:02:34;99153.94;;;13.32;49.67
21433;BME280;18592;49.708;10.900;2024-03-07T08:04:35;99146.56;;;13.32;50.22
21433;BME280;18592;49.708;10.900;2024-03-07T08:06:35;99149.63;;;13.36;50.47
21433;BME280;18592;49.708;10.900;2024-03-07T08:08:36;99151.00;;;13.38;50.19
21433;BME280;18592;49.708;10.900;2024-03-07T08:10:38;99146.13;;;13.41;50.18
21433;BME280;18592;49.708;10.900;2024-03-07T08:12:39;99149.44;;;13.43;50.51
21433;BME280;18592;49.708;10.900;2024-03-07T08:14:41;99146.44;;;13.44;50.04
21433;BME280;18592;49.708;10.900;2024-03-07T08:16:41;99153.81;;;13.44;49.65
21433;BME280;18592;49.708;10.900;2024-03-07T08:18:42;99157.38;;;13.44;49.91
21433;BME280;18592;49.708;10.900;2024-03-07T08:20:42;99152.75;;;13.45;50.00
21433;BME280;18592;49.708;10.900;2024-03-07T08:22:57;99147.84;;;13.47;50.19
21433;BME280;18592;49.708;10.900;2024-03-07T08:24:59;99152.25;;;13.48;50.15
21433;BME280;18592;49.708;10.900;2024-03-07T08:26:59;99152.81;;;13.50;50.43
21433;BME280;18592;49.708;10.900;2024-03-07T08:29:00;99145.16;;;13.52;51.32
21433;BME280;18592;49.708;10.900;2024-03-07T08:31:00;99146.56;;;13.54;51.30
21433;BME280;18592;49.708;10.900;2024-03-07T08:33:01;99146.88;;;13.58;51.43
21433;BME280;18592;49.708;10.900;2024-03-07T08:35:06;99139.22;;;13.60;51.49
21433;BME280;18592;49.708;10.900;2024-03-07T08:37:09;99143.09;;;13.64;51.72
21433;BME280;18592;49.708;10.900;2024-03-07T08:39:09;99145.09;;;13.68;51.44
21433;BME280;18592;49.708;10.900;2024-03-07T08:41:11;99142.09;;;13.70;51.28
21433;BME280;18592;49.708;10.900;2024-03-07T08:43:11;99138.00;;;13.72;51.25
21433;BME280;18592;49.708;10.900;2024-03-07T08:45:12;99138.34;;;13.76;51.72
21433;BME280;18592;49.708;10.900;2024-03-07T08:47:17;99138.38;;;13.81;51.85
21433;BME280;18592;49.708;10.900;2024-03-07T08:49:17;99142.53;;;13.83;51.80
21433;BME280;18592;49.708;10.900;2024-03-07T08:51:18;99137.91;;;13.89;52.05
21433;BME280;18592;49.708;10.900;2024-03-07T08:53:19;99135.75;;;13.91;51.73
21433;BME280;18592;49.708;10.900;2024-03-07T08:55:23;99137.38;;;13.92;51.15
21433;BME280;18592;49.708;10.900;2024-03-07T08:57:24;99132.47;;;13.94;51.35
21433;BME280;18592;49.708;10.900;2024-03-07T08:59:25;99134.13;;;13.95;51.10
21433;BME280;18592;49.708;10.900;2024-03-07T09:01:25;99133.06;;;13.96;50.86
21433;BME280;18592;49.708;10.900;2024-03-07T09:03:25;99139.13;;;13.98;50.83
21433;BME280;18592;49.708;10.900;2024-03-07T09:05:26;99138.84;;;13.99;50.75
21433;BME280;18592;49.708;10.900;2024-03-07T09:07:27;99118.56;;;14.00;51.21
21433;BME280;18592;49.708;10.900;2024-03-07T09:09:29;99128.75;;;14.05;51.08
21433;BME280;18592;49.708;10.900;2024-03-07T09:11:29;99125.22;;;14.10;51.19
21433;BME280;18592;49.708;10.900;2024-03-07T09:13:30;99128.28;;;14.13;51.16
21433;BME280;18592;49.708;10.900;2024-03-07T09:15:30;99128.59;;;14.17;51.23
21433;BME280;18592;49.708;10.900;2024-03-07T09:17:31;99122.59;;;14.20;51.28
21433;BME280;18592;49.708;10.900;2024-03-07T09:19:32;99126.72;;;14.22;51.11
21433;BME280;18592;49.708;10.900;2024-03-07T09:21:32;99125.38;;;14.25;51.39
21433;BME280;18592;49.708;10.900;2024-03-07T09:23:33;99121.28;;;14.27;51.07
21433;BME280;18592;49.708;10.900;2024-03-07T09:25:34;99119.94;;;14.30;50.65
21433;BME280;18592;49.708;10.900;2024-03-07T09:27:34;99114.22;;;14.31;50.85
21433;BME280;18592;49.708;10.900;2024-03-07T09:29:49;99110.97;;;14.34;50.92
21433;BME280;18592;49.708;10.900;2024-03-07T09:31:49;99109.63;;;14.37;51.38
21433;BME280;18592;49.708;10.900;2024-03-07T09:34:03;99102.78;;;14.39;51.32
21433;BME280;18592;49.708;10.900;2024-03-07T09:36:19;99100.59;;;14.41;51.35
21433;BME280;18592;49.708;10.900;2024-03-07T09:38:19;99097.34;;;14.44;50.91
21433;BME280;18592;49.708;10.900;2024-03-07T09:40:20;99092.13;;;14.48;50.96
21433;BME280;18592;49.708;10.900;2024-03-07T09:42:25;99097.09;;;14.51;50.70
21433;BME280;18592;49.708;10.900;2024-03-07T09:44:28;99096.81;;;14.52;50.77
21433;BME280;18592;49.708;10.900;2024-03-07T09:46:29;99091.94;;;14.54;50.35
21433;BME280;18592;49.708;10.900;2024-03-07T09:48:32;99086.72;;;14.58;50.72
21433;BME280;18592;49.708;10.900;2024-03-07T09:50:33;99095.81;;;14.63;51.04
21433;BME280;18592;49.708;10.900;2024-03-07T09:52:34;99093.09;;;14.69;51.29
21433;BME280;18592;49.708;10.900;2024-03-07T09:54:36;99085.75;;;14.74;50.78
21433;BME280;18592;49.708;10.900;2024-03-07T09:56:37;99094.84;;;14.80;51.30
21433;BME280;18592;49.708;10.900;2024-03-07T09:58:40;99091.00;;;14.86;50.90
21433;BME280;18592;49.708;10.900;2024-03-07T10:00:42;99089.41;;;14.90;50.61
21433;BME280;18592;49.708;10.900;2024-03-07T10:03:08;99085.31;;;14.92;50.76
21433;BME280;18592;49.708;10.900;2024-03-07T10:05:10;99090.53;;;14.99;50.65
21433;BME280;18592;49.708;10.900;2024-03-07T10:07:30;99084.81;;;15.05;51.02
21433;BME280;18592;49.708;10.900;2024-03-07T10:09:31;99082.09;;;15.10;50.58
21433;BME280;18592;49.708;10.900;2024-03-07T10:11:36;99085.44;;;15.17;50.66
21433;BME280;18592;49.708;10.900;2024-03-07T10:13:36;99086.84;;;15.25;51.17
21433;BME280;18592;49.708;10.900;2024-03-07T10:15:37;99083.00;;;15.31;51.01
21433;BME280;18592;49.708;10.900;2024-03-07T10:17:38;99075.88;;;15.35;50.62
21433;BME280;18592;49.708;10.900;2024-03-07T10:19:40;99076.72;;;15.41;50.15
21433;BME280;18592;49.708;10.900;2024-03-07T10:21:41;99069.59;;;15.45;50.09
21433;BME280;18592;49.708;10.900;2024-03-07T10:23:41;99068.25;;;15.47;50.04
21433;BME280;18592;49.708;10.900;2024-03-07T10:25:42;99075.69;;;15.52;50.20
21433;BME280;18592;49.708;10.900;2024-03-07T10:27:42;99068.81;;;15.54;49.72
21433;BME280;18592;49.708;10.900;2024-03-07T10:29:51;99071.03;;;15.57;49.77
21433;BME280;18592;49.708;10.900;2024-03-07T10:31:52;99074.34;;;15.59;49.59
21433;BME280;18592;49.708;10.900;2024-03-07T10:33:52;99065.00;;;15.60;49.35
21433;BME280;18592;49.708;10.900;2024-03-07T10:35:53;99071.06;;;15.62;49.17
21433;BME280;18592;49.708;10.900;2024-03-07T10:37:54;99068.31;;;15.62;49.08
21433;BME280;18592;49.708;10.900;2024-03-07T10:39:54;99065.56;;;15.62;49.12
21433;BME280;18592;49.708;10.900;2024-03-07T10:41:57;99058.97;;;15.63;49.19
21433;BME280;18592;49.708;10.900;2024-03-07T10:44:07;99055.13;;;15.64;49.07
21433;BME280;18592;49.708;10.900;2024-03-07T10:46:09;99056.78;;;15.65;48.82
21433;BME280;18592;49.708;10.900;2024-03-07T10:48:11;99057.59;;;15.66;49.17
21433;BME280;18592;49.708;10.900;2024-03-07T10:50:52;99055.41;;;15.68;49.47
21433;BME280;18592;49.708;10.900;2024-03-07T10:53:03;99055.13;;;15.69;49.74
21433;BME280;18592;49.708;10.900;2024-03-07T10:55:21;99048.78;;;15.69;48.89
21433;BME280;18592;49.708;10.900;2024-03-07T10:57:34;99051.28;;;15.70;49.42
21433;BME280;18592;49.708;10.900;2024-03-07T10:59:41;99048.00;;;15.73;49.75
21433;BME280;18592;49.708;10.900;2024-03-07T11:04:24;99042.22;;;15.75;48.61
21433;BME280;18592;49.708;10.900;2024-03-07T11:06:25;99041.94;;;15.76;48.42
21433;BME280;18592;49.708;10.900;2024-03-07T11:08:26;99048.00;;;15.78;48.90
21433;BME280;18592;49.708;10.900;2024-03-07T11:10:27;99038.09;;;15.82;49.14
21433;BME280;18592;49.708;10.900;2024-03-07T11:12:28;99037.81;;;15.89;49.49
21433;BME280;18592;49.708;10.900;2024-03-07T11:14:29;99036.19;;;15.93;49.63
21433;BME280;18592;49.708;10.900;2024-03-07T11:16:31;99038.13;;;15.98;49.72
21433;BME280;18592;49.708;10.900;2024-03-07T11:18:32;99031.25;;;16.00;49.45
21433;BME280;18592;49.708;10.900;2024-03-07T11:20:38;99029.59;;;16.04;49.68
21433;BME280;18592;49.708;10.900;2024-03-07T11:22:38;99028.22;;;16.07;49.68
21433;BME280;18592;49.708;10.900;2024-03-07T11:24:39;99031.78;;;16.12;49.61
21433;BME280;18592;49.708;10.900;2024-03-07T11:26:39;99027.41;;;16.16;49.43
21433;BME280;18592;49.708;10.900;2024-03-07T11:28:41;99017.78;;;16.19;49.47
21433;BME280;18592;49.708;10.900;2024-03-07T11:30:42;99022.69;;;16.22;49.34
21433;BME280;18592;49.708;10.900;2024-03-07T11:32:43;99024.06;;;16.24;49.62
21433;BME280;18592;49.708;10.900;2024-03-07T11:34:45;99013.34;;;16.28;49.07
21433;BME280;18592;49.708;10.900;2024-03-07T11:36:54;99011.16;;;16.30;48.92
21433;BME280;18592;49.708;10.900;2024-03-07T11:38:57;99007.84;;;16.33;48.83
21433;BME280;18592;49.708;10.900;2024-03-07T11:41:38;99003.19;;;16.33;48.93
21433;BME280;18592;49.708;10.900;2024-03-07T11:43:41;98998.50;;;16.34;48.35
21433;BME280;18592;49.708;10.900;2024-03-07T11:45:57;99001.78;;;16.36;47.04
21433;BME280;18592;49.708;10.900;2024-03-07T11:48:11;98997.91;;;16.37;47.86
21433;BME280;18592;49.708;10.900;2024-03-07T11:50:24;99000.69;;;16.37;47.34
21433;BME280;18592;49.708;10.900;2024-03-07T11:52:40;98993.53;;;16.36;47.30
21433;BME280;18592;49.708;10.900;2024-03-07T11:54:59;98990.25;;;16.34;47.08